sensor_id;sensor_type;location;lat;lon;timestamp;P1;durP1;ratioP1;P2;durP2;ratioP2
79229;SDS011;68663;49.122;17.544;2023-06-14T00:00:36;3.60;;;3.25;;
79229;SDS011;68663;49.122;17.544;2023-06-14T00:03:05;3.88;;;2.85;;
79229;SDS011;68663;49.122;17.544;2023-06-14T00:05:35;4.07;;;3.30;;
79229;SDS011;68663;49.122;17.544;2023-06-14T00:08:05;3.67;;;2.80;;
79229;SDS011;68663;49.122;17.544;2023-06-14T00:10:33;3.88;;;2.92;;
79229;SDS011;68663;49.122;17.544;2023-06-14T00:13:00;4.10;;;3.20;;
79229;SDS011;68663;49.122;17.544;2023-06-14T00:15:26;3.08;;;2.78;;
79229;SDS011;68663;49.122;17.544;2023-06-14T00:17:53;4.03;;;3.30;;
79229;SDS011;68663;49.122;17.544;2023-06-14T00:20:19;4.70;;;3.00;;
79229;SDS011;68663;49.122;17.544;2023-06-14T00:22:45;3.22;;;2.78;;
79229;SDS011;68663;49.122;17.544;2023-06-14T00:25:11;4.22;;;3.20;;
79229;SDS011;68663;49.122;17.544;2023-06-14T00:27:36;3.40;;;2.85;;
79229;SDS011;68663;49.122;17.544;2023-06-14T00:30:02;3.50;;;3.10;;
79229;SDS011;68663;49.122;17.544;2023-06-14T00:32:28;3.20;;;2.80;;
79229;SDS011;68663;49.122;17.544;2023-06-14T00:34:53;3.53;;;2.65;;
79229;SDS011;68663;49.122;17.544;2023-06-14T00:37:19;3.30;;;2.90;;
79229;SDS011;68663;49.122;17.544;2023-06-14T00:39:44;3.40;;;2.97;;
79229;SDS011;68663;49.122;17.544;2023-06-14T00:42:09;3.33;;;3.03;;
79229;SDS011;68663;49.122;17.544;2023-06-14T00:44:35;3.50;;;2.78;;
79229;SDS011;68663;49.122;17.544;2023-06-14T00:47:00;4.50;;;3.03;;
79229;SDS011;68663;49.122;17.544;2023-06-14T00:49:26;3.67;;;2.53;;
79229;SDS011;68663;49.122;17.544;2023-06-14T00:51:54;4.20;;;2.92;;
79229;SDS011;68663;49.122;17.544;2023-06-14T00:54:20;4.05;;;2.95;;
79229;SDS011;68663;49.122;17.544;2023-06-14T00:56:45;3.78;;;2.92;;
79229;SDS011;68663;49.122;17.544;2023-06-14T00:59:11;4.13;;;2.83;;
79229;SDS011;68663;49.122;17.544;2023-06-14T01:01:36;3.78;;;3.17;;
79229;SDS011;68663;49.122;17.544;2023-06-14T01:04:03;4.55;;;3.50;;
79229;SDS011;68663;49.122;17.544;2023-06-14T01:09:15;3.80;;;2.83;;
79229;SDS011;68663;49.122;17.544;2023-06-14T01:11:50;3.88;;;2.95;;
79229;SDS011;68663;49.122;17.544;2023-06-14T01:14:32;3.30;;;2.90;;
79229;SDS011;68663;49.122;17.544;2023-06-14T01:16:59;3.30;;;2.92;;
79229;SDS011;68663;49.122;17.544;2023-06-14T01:19:25;3.80;;;2.80;;
79229;SDS011;68663;49.122;17.544;2023-06-14T01:21:53;4.75;;;3.50;;
79229;SDS011;68663;49.122;17.544;2023-06-14T01:24:20;4.03;;;3.10;;
79229;SDS011;68663;49.122;17.544;2023-06-14T01:26:50;3.47;;;2.88;;
79229;SDS011;68663;49.122;17.544;2023-06-14T01:29:21;4.05;;;2.92;;
79229;SDS011;68663;49.122;17.544;2023-06-14T01:31:49;3.83;;;2.72;;
79229;SDS011;68663;49.122;17.544;2023-06-14T01:34:15;3.35;;;2.70;;
79229;SDS011;68663;49.122;17.544;2023-06-14T01:36:41;3.28;;;2.78;;
79229;SDS011;68663;49.122;17.544;2023-06-14T01:41:39;3.88;;;2.97;;
79229;SDS011;68663;49.122;17.544;2023-06-14T01:44:05;3.58;;;2.78;;
79229;SDS011;68663;49.122;17.544;2023-06-14T01:46:31;4.13;;;2.83;;
79229;SDS011;68663;49.122;17.544;2023-06-14T01:48:57;3.88;;;2.95;;
79229;SDS011;68663;49.122;17.544;2023-06-14T01:51:23;3.30;;;2.97;;
79229;SDS011;68663;49.122;17.544;2023-06-14T01:53:48;4.18;;;3.60;;
79229;SDS011;68663;49.122;17.544;2023-06-14T01:56:14;4.43;;;3.17;;
79229;SDS011;68663;49.122;17.544;2023-06-14T01:58:39;3.60;;;3.00;;
79229;SDS011;68663;49.122;17.544;2023-06-14T02:03:58;3.25;;;2.92;;
79229;SDS011;68663;49.122;17.544;2023-06-14T02:06:24;3.28;;;2.85;;
79229;SDS011;68663;49.122;17.544;2023-06-14T02:08:51;3.83;;;3.13;;
79229;SDS011;68663;49.122;17.544;2023-06-14T02:11:16;4.50;;;3.27;;
79229;SDS011;68663;49.122;17.544;2023-06-14T02:13:42;4.22;;;3.45;;
79229;SDS011;68663;49.122;17.544;2023-06-14T02:16:07;3.47;;;2.60;;
79229;SDS011;68663;49.122;17.544;2023-06-14T02:18:33;3.55;;;3.20;;
79229;SDS011;68663;49.122;17.544;2023-06-14T02:20:58;4.22;;;3.00;;
79229;SDS011;68663;49.122;17.544;2023-06-14T02:23:24;4.00;;;3.10;;
79229;SDS011;68663;49.122;17.544;2023-06-14T02:25:49;3.67;;;2.80;;
79229;SDS011;68663;49.122;17.544;2023-06-14T02:28:15;3.35;;;3.03;;
79229;SDS011;68663;49.122;17.544;2023-06-14T02:30:40;3.50;;;2.93;;
79229;SDS011;68663;49.122;17.544;2023-06-14T02:33:05;4.57;;;3.50;;
79229;SDS011;68663;49.122;17.544;2023-06-14T02:35:31;4.35;;;3.20;;
79229;SDS011;68663;49.122;17.544;2023-06-14T02:37:56;3.67;;;2.78;;
79229;SDS011;68663;49.122;17.544;2023-06-14T02:40:22;3.27;;;2.90;;
79229;SDS011;68663;49.122;17.544;2023-06-14T02:42:47;3.92;;;3.00;;
79229;SDS011;68663;49.122;17.544;2023-06-14T02:45:13;4.43;;;3.05;;
79229;SDS011;68663;49.122;17.544;2023-06-14T02:47:38;3.65;;;2.90;;
79229;SDS011;68663;49.122;17.544;2023-06-14T02:50:04;3.67;;;2.88;;
79229;SDS011;68663;49.122;17.544;2023-06-14T02:52:30;3.55;;;2.67;;
79229;SDS011;68663;49.122;17.544;2023-06-14T02:54:56;3.55;;;2.63;;
79229;SDS011;68663;49.122;17.544;2023-06-14T02:57:21;3.47;;;2.73;;
79229;SDS011;68663;49.122;17.544;2023-06-14T02:59:48;3.13;;;2.60;;
79229;SDS011;68663;49.122;17.544;2023-06-14T03:02:14;3.20;;;2.90;;
79229;SDS011;68663;49.122;17.544;2023-06-14T03:04:39;3.15;;;2.75;;
79229;SDS011;68663;49.122;17.544;2023-06-14T03:07:05;3.72;;;3.03;;
79229;SDS011;68663;49.122;17.544;2023-06-14T03:09:34;3.60;;;3.10;;
79229;SDS011;68663;49.122;17.544;2023-06-14T03:12:01;3.20;;;2.63;;
79229;SDS011;68663;49.122;17.544;2023-06-14T03:14:28;4.57;;;3.38;;
79229;SDS011;68663;49.122;17.544;2023-06-14T03:16:55;3.95;;;2.97;;
79229;SDS011;68663;49.122;17.544;2023-06-14T03:19:22;3.67;;;2.92;;
79229;SDS011;68663;49.122;17.544;2023-06-14T03:21:48;3.75;;;2.97;;
79229;SDS011;68663;49.122;17.544;2023-06-14T03:24:14;3.00;;;2.70;;
79229;SDS011;68663;49.122;17.544;2023-06-14T03:26:41;3.25;;;2.80;;
79229;SDS011;68663;49.122;17.544;2023-06-14T03:29:07;3.28;;;2.97;;
79229;SDS011;68663;49.122;17.544;2023-06-14T03:31:33;3.40;;;2.75;;
79229;SDS011;68663;49.122;17.544;2023-06-14T03:34:00;3.88;;;2.90;;
79229;SDS011;68663;49.122;17.544;2023-06-14T03:36:26;4.13;;;2.92;;
79229;SDS011;68663;49.122;17.544;2023-06-14T03:38:52;4.38;;;3.35;;
79229;SDS011;68663;49.122;17.544;2023-06-14T03:41:18;4.18;;;3.67;;
79229;SDS011;68663;49.122;17.544;2023-06-14T03:43:44;4.65;;;3.25;;
79229;SDS011;68663;49.122;17.544;2023-06-14T03:46:09;3.97;;;3.15;;
79229;SDS011;68663;49.122;17.544;2023-06-14T03:48:35;3.40;;;3.00;;
79229;SDS011;68663;49.122;17.544;2023-06-14T03:51:00;3.72;;;3.08;;
79229;SDS011;68663;49.122;17.544;2023-06-14T03:53:26;3.53;;;2.80;;
79229;SDS011;68663;49.122;17.544;2023-06-14T03:55:53;5.00;;;3.40;;
79229;SDS011;68663;49.122;17.544;2023-06-14T03:58:19;4.47;;;3.47;;
79229;SDS011;68663;49.122;17.544;2023-06-14T04:00:44;7.00;;;3.85;;
79229;SDS011;68663;49.122;17.544;2023-06-14T04:03:10;13.60;;;5.30;;
79229;SDS011;68663;49.122;17.544;2023-06-14T04:05:38;10.45;;;5.60;;
79229;SDS011;68663;49.122;17.544;2023-06-14T04:08:07;13.32;;;5.38;;
79229;SDS011;68663;49.122;17.544;2023-06-14T04:10:34;16.08;;;5.53;;
79229;SDS011;68663;49.122;17.544;2023-06-14T04:13:00;15.13;;;6.18;;
79229;SDS011;68663;49.122;17.544;2023-06-14T04:15:25;11.13;;;6.03;;
79229;SDS011;68663;49.122;17.544;2023-06-14T04:17:53;22.13;;;6.47;;
79229;SDS011;68663;49.122;17.544;2023-06-14T04:20:22;9.75;;;5.20;;
79229;SDS011;68663;49.122;17.544;2023-06-14T04:22:49;10.57;;;4.90;;
79229;SDS011;68663;49.122;17.544;2023-06-14T04:25:14;9.77;;;5.65;;
79229;SDS011;68663;49.122;17.544;2023-06-14T04:27:40;14.77;;;5.75;;
79229;SDS011;68663;49.122;17.544;2023-06-14T04:30:06;13.85;;;5.25;;
79229;SDS011;68663;49.122;17.544;2023-06-14T04:32:33;15.18;;;5.72;;
79229;SDS011;68663;49.122;17.544;2023-06-14T04:34:59;13.60;;;6.13;;
79229;SDS011;68663;49.122;17.544;2023-06-14T04:37:27;12.00;;;6.05;;
79229;SDS011;68663;49.122;17.544;2023-06-14T04:39:54;14.52;;;6.18;;
79229;SDS011;68663;49.122;17.544;2023-06-14T04:42:21;18.27;;;5.97;;
79229;SDS011;68663;49.122;17.544;2023-06-14T04:44:55;16.67;;;5.95;;
79229;SDS011;68663;49.122;17.544;2023-06-14T04:47:22;16.98;;;5.85;;
79229;SDS011;68663;49.122;17.544;2023-06-14T04:49:49;12.63;;;5.10;;
79229;SDS011;68663;49.122;17.544;2023-06-14T04:52:17;11.23;;;5.32;;
79229;SDS011;68663;49.122;17.544;2023-06-14T04:54:45;12.63;;;5.70;;
79229;SDS011;68663;49.122;17.544;2023-06-14T04:57:11;11.38;;;5.50;;
79229;SDS011;68663;49.122;17.544;2023-06-14T04:59:42;16.08;;;5.75;;
79229;SDS011;68663;49.122;17.544;2023-06-14T05:02:10;8.73;;;4.93;;
79229;SDS011;68663;49.122;17.544;2023-06-14T05:04:36;12.13;;;5.80;;
79229;SDS011;68663;49.122;17.544;2023-06-14T05:07:06;13.55;;;5.72;;
79229;SDS011;68663;49.122;17.544;2023-06-14T05:09:37;13.35;;;5.68;;
79229;SDS011;68663;49.122;17.544;2023-06-14T05:12:03;10.18;;;5.32;;
79229;SDS011;68663;49.122;17.544;2023-06-14T05:14:28;11.95;;;4.95;;
79229;SDS011;68663;49.122;17.544;2023-06-14T05:16:54;11.00;;;4.90;;
79229;SDS011;68663;49.122;17.544;2023-06-14T05:19:20;9.35;;;4.47;;
79229;SDS011;68663;49.122;17.544;2023-06-14T05:21:47;10.23;;;5.18;;
79229;SDS011;68663;49.122;17.544;2023-06-14T05:24:13;9.80;;;4.93;;
79229;SDS011;68663;49.122;17.544;2023-06-14T05:26:42;11.10;;;4.88;;
79229;SDS011;68663;49.122;17.544;2023-06-14T05:29:08;8.23;;;4.53;;
79229;SDS011;68663;49.122;17.544;2023-06-14T05:31:34;10.52;;;5.32;;
79229;SDS011;68663;49.122;17.544;2023-06-14T05:33:59;9.15;;;5.13;;
79229;SDS011;68663;49.122;17.544;2023-06-14T05:36:25;7.85;;;4.75;;
79229;SDS011;68663;49.122;17.544;2023-06-14T05:38:50;9.05;;;4.47;;
79229;SDS011;68663;49.122;17.544;2023-06-14T05:41:22;10.20;;;5.07;;
79229;SDS011;68663;49.122;17.544;2023-06-14T05:43:47;12.00;;;4.90;;
79229;SDS011;68663;49.122;17.544;2023-06-14T05:46:13;7.70;;;4.93;;
79229;SDS011;68663;49.122;17.544;2023-06-14T05:48:39;9.77;;;4.75;;
79229;SDS011;68663;49.122;17.544;2023-06-14T05:51:05;9.90;;;4.90;;
79229;SDS011;68663;49.122;17.544;2023-06-14T05:53:33;9.52;;;4.85;;
79229;SDS011;68663;49.122;17.544;2023-06-14T05:55:59;9.02;;;4.50;;
79229;SDS011;68663;49.122;17.544;2023-06-14T05:58:24;8.00;;;4.63;;
79229;SDS011;68663;49.122;17.544;2023-06-14T06:00:50;7.50;;;4.78;;
79229;SDS011;68663;49.122;17.544;2023-06-14T06:03:15;9.25;;;4.28;;
79229;SDS011;68663;49.122;17.544;2023-06-14T06:05:41;10.50;;;5.00;;
79229;SDS011;68663;49.122;17.544;2023-06-14T06:08:06;8.13;;;4.55;;
79229;SDS011;68663;49.122;17.544;2023-06-14T06:10:32;11.15;;;5.82;;
79229;SDS011;68663;49.122;17.544;2023-06-14T06:12:57;9.77;;;5.60;;
79229;SDS011;68663;49.122;17.544;2023-06-14T06:15:23;10.20;;;5.15;;
79229;SDS011;68663;49.122;17.544;2023-06-14T06:17:48;8.77;;;4.68;;
79229;SDS011;68663;49.122;17.544;2023-06-14T06:20:13;8.13;;;4.03;;
79229;SDS011;68663;49.122;17.544;2023-06-14T06:22:39;7.80;;;5.00;;
79229;SDS011;68663;49.122;17.544;2023-06-14T06:25:05;9.50;;;4.90;;
79229;SDS011;68663;49.122;17.544;2023-06-14T06:27:31;7.43;;;4.82;;
79229;SDS011;68663;49.122;17.544;2023-06-14T06:29:57;10.48;;;5.00;;
79229;SDS011;68663;49.122;17.544;2023-06-14T06:32:22;7.47;;;4.63;;
79229;SDS011;68663;49.122;17.544;2023-06-14T06:34:48;9.27;;;4.50;;
79229;SDS011;68663;49.122;17.544;2023-06-14T06:37:13;8.05;;;4.68;;
79229;SDS011;68663;49.122;17.544;2023-06-14T06:39:39;5.88;;;4.38;;
79229;SDS011;68663;49.122;17.544;2023-06-14T06:42:04;9.43;;;4.70;;
79229;SDS011;68663;49.122;17.544;2023-06-14T06:44:30;6.80;;;4.68;;
79229;SDS011;68663;49.122;17.544;2023-06-14T06:46:56;9.35;;;5.63;;
79229;SDS011;68663;49.122;17.544;2023-06-14T06:49:22;12.60;;;7.53;;
79229;SDS011;68663;49.122;17.544;2023-06-14T06:52:04;12.80;;;7.07;;
79229;SDS011;68663;49.122;17.544;2023-06-14T06:54:31;9.07;;;6.65;;
79229;SDS011;68663;49.122;17.544;2023-06-14T06:56:57;12.23;;;8.80;;
79229;SDS011;68663;49.122;17.544;2023-06-14T06:59:23;8.57;;;6.57;;
79229;SDS011;68663;49.122;17.544;2023-06-14T07:01:48;9.82;;;6.97;;
79229;SDS011;68663;49.122;17.544;2023-06-14T07:04:14;9.75;;;7.07;;
79229;SDS011;68663;49.122;17.544;2023-06-14T07:06:39;8.25;;;6.70;;
79229;SDS011;68663;49.122;17.544;2023-06-14T07:09:05;10.30;;;6.75;;
79229;SDS011;68663;49.122;17.544;2023-06-14T07:11:33;10.43;;;6.32;;
79229;SDS011;68663;49.122;17.544;2023-06-14T07:13:58;10.45;;;6.20;;
79229;SDS011;68663;49.122;17.544;2023-06-14T07:16:24;9.90;;;6.53;;
79229;SDS011;68663;49.122;17.544;2023-06-14T07:18:50;9.15;;;5.40;;
79229;SDS011;68663;49.122;17.544;2023-06-14T07:21:16;8.00;;;5.18;;
79229;SDS011;68663;49.122;17.544;2023-06-14T07:23:41;8.07;;;5.20;;
79229;SDS011;68663;49.122;17.544;2023-06-14T07:26:08;10.38;;;8.05;;
79229;SDS011;68663;49.122;17.544;2023-06-14T07:28:33;12.25;;;7.88;;
79229;SDS011;68663;49.122;17.544;2023-06-14T07:30:58;12.80;;;8.27;;
79229;SDS011;68663;49.122;17.544;2023-06-14T07:33:24;11.53;;;7.93;;
79229;SDS011;68663;49.122;17.544;2023-06-14T07:35:49;9.03;;;7.07;;
79229;SDS011;68663;49.122;17.544;2023-06-14T07:38:15;8.90;;;6.63;;
79229;SDS011;68663;49.122;17.544;2023-06-14T07:40:41;9.05;;;6.15;;
79229;SDS011;68663;49.122;17.544;2023-06-14T07:43:06;9.83;;;6.77;;
79229;SDS011;68663;49.122;17.544;2023-06-14T07:45:32;10.15;;;7.50;;
79229;SDS011;68663;49.122;17.544;2023-06-14T07:47:57;9.18;;;6.93;;
79229;SDS011;68663;49.122;17.544;2023-06-14T07:50:22;10.03;;;6.80;;
79229;SDS011;68663;49.122;17.544;2023-06-14T07:52:48;8.18;;;6.47;;
79229;SDS011;68663;49.122;17.544;2023-06-14T07:55:14;8.27;;;5.95;;
79229;SDS011;68663;49.122;17.544;2023-06-14T07:57:40;7.22;;;5.65;;
79229;SDS011;68663;49.122;17.544;2023-06-14T08:00:05;11.88;;;8.00;;
79229;SDS011;68663;49.122;17.544;2023-06-14T08:02:31;9.00;;;6.68;;
79229;SDS011;68663;49.122;17.544;2023-06-14T08:04:57;9.02;;;6.88;;
79229;SDS011;68663;49.122;17.544;2023-06-14T08:07:23;8.52;;;5.97;;
79229;SDS011;68663;49.122;17.544;2023-06-14T08:09:49;10.05;;;5.95;;
79229;SDS011;68663;49.122;17.544;2023-06-14T08:12:15;10.43;;;6.00;;
79229;SDS011;68663;49.122;17.544;2023-06-14T08:14:41;10.50;;;7.67;;
79229;SDS011;68663;49.122;17.544;2023-06-14T08:17:07;9.73;;;6.85;;
79229;SDS011;68663;49.122;17.544;2023-06-14T08:19:33;9.15;;;7.95;;
79229;SDS011;68663;49.122;17.544;2023-06-14T08:21:58;9.60;;;7.53;;
79229;SDS011;68663;49.122;17.544;2023-06-14T08:24:24;6.85;;;5.53;;
79229;SDS011;68663;49.122;17.544;2023-06-14T08:26:52;9.48;;;7.00;;
79229;SDS011;68663;49.122;17.544;2023-06-14T08:29:18;11.60;;;8.13;;
79229;SDS011;68663;49.122;17.544;2023-06-14T08:31:43;8.07;;;6.80;;
79229;SDS011;68663;49.122;17.544;2023-06-14T08:34:09;9.13;;;6.77;;
79229;SDS011;68663;49.122;17.544;2023-06-14T08:36:37;8.10;;;6.50;;
79229;SDS011;68663;49.122;17.544;2023-06-14T08:41:28;7.60;;;5.32;;
79229;SDS011;68663;49.122;17.544;2023-06-14T08:43:55;8.82;;;6.28;;
79229;SDS011;68663;49.122;17.544;2023-06-14T08:46:21;8.98;;;6.05;;
79229;SDS011;68663;49.122;17.544;2023-06-14T08:48:52;8.10;;;6.35;;
79229;SDS011;68663;49.122;17.544;2023-06-14T08:51:21;7.85;;;6.00;;
79229;SDS011;68663;49.122;17.544;2023-06-14T08:53:52;8.77;;;6.13;;
79229;SDS011;68663;49.122;17.544;2023-06-14T08:56:22;10.90;;;6.43;;
79229;SDS011;68663;49.122;17.544;2023-06-14T08:58:52;9.68;;;7.32;;
79229;SDS011;68663;49.122;17.544;2023-06-14T09:01:19;9.77;;;7.00;;
79229;SDS011;68663;49.122;17.544;2023-06-14T09:03:46;11.32;;;8.57;;
79229;SDS011;68663;49.122;17.544;2023-06-14T09:06:13;9.85;;;7.10;;
79229;SDS011;68663;49.122;17.544;2023-06-14T09:08:42;8.23;;;6.55;;
79229;SDS011;68663;49.122;17.544;2023-06-14T09:11:11;8.80;;;6.32;;
79229;SDS011;68663;49.122;17.544;2023-06-14T09:13:38;7.50;;;6.15;;
79229;SDS011;68663;49.122;17.544;2023-06-14T09:16:04;7.97;;;6.28;;
79229;SDS011;68663;49.122;17.544;2023-06-14T09:18:37;9.05;;;6.13;;
79229;SDS011;68663;49.122;17.544;2023-06-14T09:21:05;7.45;;;5.72;;
79229;SDS011;68663;49.122;17.544;2023-06-14T09:23:42;7.70;;;5.82;;
79229;SDS011;68663;49.122;17.544;2023-06-14T09:26:12;6.88;;;5.50;;
79229;SDS011;68663;49.122;17.544;2023-06-14T09:28:45;9.27;;;6.28;;
79229;SDS011;68663;49.122;17.544;2023-06-14T09:31:12;8.40;;;6.55;;
79229;SDS011;68663;49.122;17.544;2023-06-14T09:33:43;9.20;;;7.18;;
79229;SDS011;68663;49.122;17.544;2023-06-14T09:36:16;6.55;;;5.85;;
79229;SDS011;68663;49.122;17.544;2023-06-14T09:38:52;7.05;;;5.50;;
79229;SDS011;68663;49.122;17.544;2023-06-14T09:41:21;8.35;;;7.43;;
79229;SDS011;68663;49.122;17.544;2023-06-14T09:43:57;7.97;;;7.00;;
79229;SDS011;68663;49.122;17.544;2023-06-14T09:46:26;9.00;;;6.80;;
79229;SDS011;68663;49.122;17.544;2023-06-14T09:48:52;9.90;;;7.05;;
79229;SDS011;68663;49.122;17.544;2023-06-14T09:51:18;9.57;;;7.35;;
79229;SDS011;68663;49.122;17.544;2023-06-14T09:53:46;9.50;;;6.90;;
79229;SDS011;68663;49.122;17.544;2023-06-14T09:56:14;8.20;;;6.90;;
79229;SDS011;68663;49.122;17.544;2023-06-14T09:58:47;7.93;;;6.38;;
79229;SDS011;68663;49.122;17.544;2023-06-14T10:01:15;8.10;;;6.68;;
79229;SDS011;68663;49.122;17.544;2023-06-14T10:06:09;8.60;;;6.20;;
79229;SDS011;68663;49.122;17.544;2023-06-14T10:08:35;7.30;;;6.30;;
79229;SDS011;68663;49.122;17.544;2023-06-14T10:11:02;7.07;;;5.60;;
79229;SDS011;68663;49.122;17.544;2023-06-14T10:13:28;7.22;;;5.80;;
79229;SDS011;68663;49.122;17.544;2023-06-14T10:16:00;7.22;;;5.95;;
79229;SDS011;68663;49.122;17.544;2023-06-14T10:19:03;6.47;;;5.18;;
79229;SDS011;68663;49.122;17.544;2023-06-14T10:24:21;7.68;;;5.85;;
79229;SDS011;68663;49.122;17.544;2023-06-14T10:27:08;8.05;;;6.38;;
79229;SDS011;68663;49.122;17.544;2023-06-14T10:34:43;8.07;;;6.40;;
79229;SDS011;68663;49.122;17.544;2023-06-14T10:37:13;9.13;;;6.32;;
79229;SDS011;68663;49.122;17.544;2023-06-14T10:39:39;8.05;;;6.25;;
79229;SDS011;68663;49.122;17.544;2023-06-14T10:42:06;7.40;;;6.70;;
79229;SDS011;68663;49.122;17.544;2023-06-14T10:47:20;6.38;;;5.45;;
79229;SDS011;68663;49.122;17.544;2023-06-14T10:52:27;8.93;;;6.70;;
79229;SDS011;68663;49.122;17.544;2023-06-14T11:00:23;7.93;;;6.07;;
79229;SDS011;68663;49.122;17.544;2023-06-14T11:05:40;7.50;;;5.75;;
79229;SDS011;68663;49.122;17.544;2023-06-14T11:10:41;7.78;;;6.70;;
79229;SDS011;68663;49.122;17.544;2023-06-14T11:13:10;7.72;;;6.15;;
79229;SDS011;68663;49.122;17.544;2023-06-14T11:15:37;8.65;;;6.43;;
79229;SDS011;68663;49.122;17.544;2023-06-14T11:18:04;7.22;;;5.85;;
79229;SDS011;68663;49.122;17.544;2023-06-14T11:20:32;10.90;;;7.00;;
79229;SDS011;68663;49.122;17.544;2023-06-14T11:23:00;8.20;;;6.28;;
79229;SDS011;68663;49.122;17.544;2023-06-14T11:25:26;6.93;;;5.93;;
79229;SDS011;68663;49.122;17.544;2023-06-14T11:27:53;7.72;;;5.53;;
79229;SDS011;68663;49.122;17.544;2023-06-14T11:30:19;6.13;;;5.53;;
79229;SDS011;68663;49.122;17.544;2023-06-14T11:32:48;7.30;;;5.63;;
79229;SDS011;68663;49.122;17.544;2023-06-14T11:35:15;6.75;;;5.72;;
79229;SDS011;68663;49.122;17.544;2023-06-14T11:37:41;6.78;;;5.78;;
79229;SDS011;68663;49.122;17.544;2023-06-14T11:40:08;6.68;;;5.63;;
79229;SDS011;68663;49.122;17.544;2023-06-14T11:42:35;7.28;;;5.43;;
79229;SDS011;68663;49.122;17.544;2023-06-14T11:45:01;6.80;;;5.50;;
79229;SDS011;68663;49.122;17.544;2023-06-14T11:47:34;6.40;;;5.40;;
79229;SDS011;68663;49.122;17.544;2023-06-14T11:50:00;6.38;;;5.32;;
79229;SDS011;68663;49.122;17.544;2023-06-14T11:52:26;6.78;;;6.07;;
79229;SDS011;68663;49.122;17.544;2023-06-14T11:54:52;7.32;;;6.05;;
79229;SDS011;68663;49.122;17.544;2023-06-14T11:57:18;7.35;;;5.93;;
79229;SDS011;68663;49.122;17.544;2023-06-14T11:59:44;9.68;;;6.75;;
79229;SDS011;68663;49.122;17.544;2023-06-14T12:02:13;8.88;;;6.28;;
79229;SDS011;68663;49.122;17.544;2023-06-14T12:04:43;7.53;;;5.60;;
79229;SDS011;68663;49.122;17.544;2023-06-14T12:07:12;7.45;;;6.45;;
79229;SDS011;68663;49.122;17.544;2023-06-14T12:09:46;6.70;;;5.97;;
79229;SDS011;68663;49.122;17.544;2023-06-14T12:12:28;8.05;;;5.57;;
79229;SDS011;68663;49.122;17.544;2023-06-14T12:14:56;7.30;;;5.28;;
79229;SDS011;68663;49.122;17.544;2023-06-14T12:17:22;6.93;;;5.90;;
79229;SDS011;68663;49.122;17.544;2023-06-14T12:19:48;6.90;;;5.65;;
79229;SDS011;68663;49.122;17.544;2023-06-14T12:22:15;6.45;;;5.13;;
79229;SDS011;68663;49.122;17.544;2023-06-14T12:24:45;7.10;;;5.93;;
79229;SDS011;68663;49.122;17.544;2023-06-14T12:27:11;5.75;;;4.85;;
79229;SDS011;68663;49.122;17.544;2023-06-14T12:29:40;6.93;;;5.32;;
79229;SDS011;68663;49.122;17.544;2023-06-14T12:32:06;7.00;;;5.78;;
79229;SDS011;68663;49.122;17.544;2023-06-14T12:34:31;5.78;;;4.97;;
79229;SDS011;68663;49.122;17.544;2023-06-14T12:36:57;6.80;;;5.90;;
79229;SDS011;68663;49.122;17.544;2023-06-14T12:39:22;6.75;;;6.05;;
79229;SDS011;68663;49.122;17.544;2023-06-14T12:41:48;7.18;;;5.82;;
79229;SDS011;68663;49.122;17.544;2023-06-14T12:44:13;6.85;;;6.10;;
79229;SDS011;68663;49.122;17.544;2023-06-14T12:46:40;6.55;;;5.30;;
79229;SDS011;68663;49.122;17.544;2023-06-14T12:49:13;7.03;;;5.75;;
79229;SDS011;68663;49.122;17.544;2023-06-14T12:51:38;7.07;;;6.13;;
79229;SDS011;68663;49.122;17.544;2023-06-14T12:54:05;6.38;;;5.57;;
79229;SDS011;68663;49.122;17.544;2023-06-14T12:56:31;6.63;;;5.63;;
79229;SDS011;68663;49.122;17.544;2023-06-14T12:58:57;7.03;;;5.68;;
79229;SDS011;68663;49.122;17.544;2023-06-14T13:01:23;5.57;;;4.57;;
79229;SDS011;68663;49.122;17.544;2023-06-14T13:03:48;8.35;;;6.00;;
79229;SDS011;68663;49.122;17.544;2023-06-14T13:06:16;6.10;;;5.45;;
79229;SDS011;68663;49.122;17.544;2023-06-14T13:08:42;6.00;;;5.18;;
79229;SDS011;68663;49.122;17.544;2023-06-14T13:11:08;6.45;;;5.60;;
79229;SDS011;68663;49.122;17.544;2023-06-14T13:13:33;7.20;;;5.57;;
79229;SDS011;68663;49.122;17.544;2023-06-14T13:15:59;8.18;;;6.10;;
79229;SDS011;68663;49.122;17.544;2023-06-14T13:18:25;6.55;;;5.25;;
79229;SDS011;68663;49.122;17.544;2023-06-14T13:20:50;11.70;;;5.90;;
79229;SDS011;68663;49.122;17.544;2023-06-14T13:23:16;6.40;;;5.28;;
79229;SDS011;68663;49.122;17.544;2023-06-14T13:25:42;7.20;;;5.65;;
79229;SDS011;68663;49.122;17.544;2023-06-14T13:28:08;8.50;;;6.97;;
79229;SDS011;68663;49.122;17.544;2023-06-14T13:30:34;6.95;;;5.97;;
79229;SDS011;68663;49.122;17.544;2023-06-14T13:33:00;9.02;;;6.47;;
79229;SDS011;68663;49.122;17.544;2023-06-14T13:35:26;7.40;;;5.75;;
79229;SDS011;68663;49.122;17.544;2023-06-14T13:37:51;8.05;;;6.47;;
79229;SDS011;68663;49.122;17.544;2023-06-14T13:40:17;7.40;;;6.05;;
79229;SDS011;68663;49.122;17.544;2023-06-14T13:42:43;7.00;;;6.25;;
79229;SDS011;68663;49.122;17.544;2023-06-14T13:45:10;9.50;;;6.68;;
79229;SDS011;68663;49.122;17.544;2023-06-14T13:47:36;11.18;;;6.55;;
79229;SDS011;68663;49.122;17.544;2023-06-14T13:50:02;8.15;;;6.30;;
79229;SDS011;68663;49.122;17.544;2023-06-14T13:52:28;10.05;;;7.00;;
79229;SDS011;68663;49.122;17.544;2023-06-14T13:54:54;9.77;;;6.33;;
79229;SDS011;68663;49.122;17.544;2023-06-14T13:57:19;9.18;;;6.57;;
79229;SDS011;68663;49.122;17.544;2023-06-14T13:59:45;9.35;;;6.28;;
79229;SDS011;68663;49.122;17.544;2023-06-14T14:02:10;7.82;;;7.03;;
79229;SDS011;68663;49.122;17.544;2023-06-14T14:04:37;7.85;;;6.35;;
79229;SDS011;68663;49.122;17.544;2023-06-14T14:07:03;8.10;;;6.43;;
79229;SDS011;68663;49.122;17.544;2023-06-14T14:09:30;9.10;;;6.78;;
79229;SDS011;68663;49.122;17.544;2023-06-14T14:11:56;10.93;;;7.80;;
79229;SDS011;68663;49.122;17.544;2023-06-14T14:14:22;7.80;;;7.00;;
79229;SDS011;68663;49.122;17.544;2023-06-14T14:16:48;10.13;;;6.88;;
79229;SDS011;68663;49.122;17.544;2023-06-14T14:19:16;9.70;;;7.45;;
79229;SDS011;68663;49.122;17.544;2023-06-14T14:21:44;10.23;;;6.90;;
79229;SDS011;68663;49.122;17.544;2023-06-14T14:24:10;9.88;;;7.47;;
79229;SDS011;68663;49.122;17.544;2023-06-14T14:26:36;9.25;;;7.25;;
79229;SDS011;68663;49.122;17.544;2023-06-14T14:29:01;10.90;;;6.53;;
79229;SDS011;68663;49.122;17.544;2023-06-14T14:31:27;8.00;;;6.32;;
79229;SDS011;68663;49.122;17.544;2023-06-14T14:33:53;8.13;;;6.55;;
79229;SDS011;68663;49.122;17.544;2023-06-14T14:36:20;11.38;;;7.13;;
79229;SDS011;68663;49.122;17.544;2023-06-14T14:38:45;13.13;;;7.40;;
79229;SDS011;68663;49.122;17.544;2023-06-14T14:41:12;9.80;;;6.43;;
79229;SDS011;68663;49.122;17.544;2023-06-14T14:43:37;9.50;;;6.65;;
79229;SDS011;68663;49.122;17.544;2023-06-14T14:46:03;9.25;;;6.82;;
79229;SDS011;68663;49.122;17.544;2023-06-14T14:48:28;9.32;;;7.05;;
79229;SDS011;68663;49.122;17.544;2023-06-14T14:50:54;9.40;;;6.82;;
79229;SDS011;68663;49.122;17.544;2023-06-14T14:53:19;11.52;;;6.82;;
79229;SDS011;68663;49.122;17.544;2023-06-14T14:55:45;8.88;;;6.57;;
79229;SDS011;68663;49.122;17.544;2023-06-14T14:58:11;7.82;;;6.15;;
79229;SDS011;68663;49.122;17.544;2023-06-14T15:00:37;8.68;;;6.55;;
79229;SDS011;68663;49.122;17.544;2023-06-14T15:03:03;7.60;;;6.63;;
79229;SDS011;68663;49.122;17.544;2023-06-14T15:05:28;8.77;;;6.40;;